createdAt,value
2023-03-05T00:02:25.936Z,69.88
2023-03-05T00:04:58.651Z,69.70
2023-03-05T00:07:31.619Z,70.37
2023-03-05T00:10:06.966Z,70.11
2023-03-05T00:12:39.686Z,70.40
2023-03-05T00:15:12.863Z,69.92
2023-03-05T00:17:46.939Z,70.06
2023-03-05T00:20:19.764Z,70.36
2023-03-05T00:22:52.818Z,70.12
2023-03-05T00:25:25.369Z,70.39
2023-03-05T00:27:58.134Z,69.98
2023-03-05T00:30:31.872Z,69.91
2023-03-05T00:33:06.247Z,69.85
2023-03-05T00:35:41.335Z,69.99
2023-03-05T00:38:14.713Z,69.89
2023-03-05T00:40:47.433Z,70.00
2023-03-05T00:43:20.292Z,69.96
2023-03-05T00:45:52.838Z,70.19
2023-03-05T00:48:26.948Z,70.59
2023-03-05T00:50:59.614Z,70.29
2023-03-05T00:53:33.431Z,70.10
2023-03-05T00:56:07.502Z,70.00
2023-03-05T00:58:40.877Z,70.03
2023-03-05T01:01:14.848Z,70.09
2023-03-05T01:03:49.147Z,70.05
2023-03-05T01:06:21.867Z,70.17
2023-03-05T01:08:54.685Z,70.31
2023-03-05T01:11:27.442Z,70.04
2023-03-05T01:14:00.234Z,69.94
2023-03-05T01:16:33.530Z,70.15
2023-03-05T01:19:07.797Z,70.10
2023-03-05T01:21:40.572Z,69.79
2023-03-05T01:24:13.564Z,70.12
2023-03-05T01:26:46.158Z,69.87
2023-03-05T01:29:19.134Z,69.89
2023-03-05T01:31:51.833Z,70.43
2023-03-05T01:34:26.130Z,70.21
2023-03-05T01:36:58.809Z,70.44
2023-03-05T01:39:32.049Z,70.10
2023-03-05T01:42:05.211Z,69.93
2023-03-05T01:44:38.695Z,70.51
2023-03-05T01:47:11.580Z,70.51
2023-03-05T01:49:45.943Z,70.18
2023-03-05T01:52:21.037Z,70.26
2023-03-05T01:54:57.238Z,70.07
2023-03-05T01:57:34.415Z,70.20
2023-03-05T02:00:11.611Z,70.41
2023-03-05T02:02:51.687Z,69.89
2023-03-05T02:05:30.874Z,70.22
2023-03-05T02:08:06.083Z,69.86
2023-03-05T02:10:40.727Z,69.72
2023-03-05T02:13:16.392Z,70.25
2023-03-05T02:15:49.798Z,69.77
2023-03-05T02:18:23.246Z,70.18
2023-03-05T02:21:02.377Z,69.24
2023-03-05T02:23:37.287Z,69.77
2023-03-05T02:26:11.805Z,69.62
2023-03-05T02:28:48.315Z,69.81
2023-03-05T02:31:23.088Z,70.16
2023-03-05T02:33:56.985Z,70.03
2023-03-05T02:36:32.145Z,70.00
2023-03-05T02:39:05.244Z,69.89
2023-03-05T02:41:38.758Z,69.66
2023-03-05T02:44:11.906Z,69.78
2023-03-05T02:46:44.992Z,70.03
2023-03-05T02:49:17.901Z,70.13
2023-03-05T02:51:51.812Z,70.21
2023-03-05T02:54:24.728Z,69.94
2023-03-05T02:56:57.293Z,70.14
2023-03-05T02:59:30.052Z,70.18
2023-03-05T03:02:03.050Z,70.27
2023-03-05T03:04:35.828Z,70.43
2023-03-05T03:07:09.922Z,70.40
2023-03-05T03:09:43.743Z,70.15
2023-03-05T03:12:16.831Z,70.05
2023-03-05T03:14:49.542Z,70.06
2023-03-05T03:17:22.402Z,70.06
2023-03-05T03:19:55.046Z,70.11
2023-03-05T03:22:29.369Z,70.18
2023-03-05T03:25:02.709Z,70.02
2023-03-05T03:27:35.874Z,70.39
2023-03-05T03:30:09.999Z,70.19
2023-03-05T03:32:42.802Z,70.05
2023-03-05T03:35:15.454Z,70.58
2023-03-05T03:37:49.928Z,70.24
2023-03-05T03:40:22.823Z,70.22
2023-03-05T03:42:55.984Z,69.70
2023-03-05T03:45:28.639Z,70.38
2023-03-05T03:48:01.373Z,70.25
2023-03-05T03:50:34.070Z,70.18
2023-03-05T03:53:09.182Z,69.91
2023-03-05T03:55:43.912Z,70.31
2023-03-05T03:58:16.781Z,70.00
2023-03-05T04:00:49.547Z,70.06
2023-03-05T04:03:22.601Z,70.05
2023-03-05T04:05:55.323Z,70.13
2023-03-05T04:08:29.529Z,69.96
2023-03-05T04:11:02.559Z,70.01
2023-03-05T04:13:35.322Z,70.28
2023-03-05T04:16:08.637Z,70.25
2023-03-05T04:18:41.962Z,70.00
2023-03-05T04:21:14.902Z,70.18
2023-03-05T04:23:49.197Z,70.09
2023-03-05T04:26:21.903Z,70.04
2023-03-05T04:28:55.053Z,70.01
2023-03-05T04:31:27.826Z,69.44
2023-03-05T04:34:00.713Z,70.50
2023-03-05T04:36:33.462Z,70.07
2023-03-05T04:39:07.716Z,70.28
2023-03-05T04:41:40.471Z,70.02
2023-03-05T04:44:13.136Z,70.28
2023-03-05T04:46:46.014Z,70.09
2023-03-05T04:49:18.800Z,70.29
2023-03-05T04:51:51.860Z,70.33
2023-03-05T04:54:25.971Z,70.51
2023-03-05T04:56:58.647Z,70.04
2023-03-05T04:59:31.498Z,70.36
2023-03-05T05:02:04.422Z,70.24
2023-03-05T05:04:37.415Z,70.29
2023-03-05T05:07:10.307Z,70.78
2023-03-05T05:09:44.361Z,70.58
2023-03-05T05:12:17.192Z,70.94
2023-03-05T05:14:50.487Z,70.78
2023-03-05T05:17:23.198Z,70.84
2023-03-05T05:19:56.401Z,70.54
2023-03-05T05:22:30.159Z,70.73
2023-03-05T05:25:05.227Z,70.72
2023-03-05T05:27:38.108Z,70.88
2023-03-05T05:30:11.904Z,70.53
2023-03-05T05:32:44.652Z,70.85
2023-03-05T05:35:17.766Z,70.99
2023-03-05T05:37:50.753Z,70.70
2023-03-05T05:40:25.077Z,70.67
2023-03-05T05:42:57.797Z,70.69
2023-03-05T05:45:30.878Z,70.68
2023-03-05T05:48:03.756Z,70.97
2023-03-05T05:50:36.641Z,71.14
2023-03-05T05:53:09.348Z,70.37
2023-03-05T05:55:43.517Z,70.76
2023-03-05T05:58:16.258Z,70.54
2023-03-05T06:00:49.095Z,70.54
2023-03-05T06:03:21.632Z,70.53
2023-03-05T06:05:54.658Z,70.75
2023-03-05T06:08:27.381Z,70.48
2023-03-05T06:11:01.567Z,70.44
2023-03-05T06:13:34.546Z,70.44
2023-03-05T06:16:08.411Z,70.32
2023-03-05T06:18:41.658Z,70.37
2023-03-05T06:21:17.129Z,70.18
2023-03-05T06:23:51.554Z,70.16
2023-03-05T06:26:26.375Z,70.29
2023-03-05T06:28:59.170Z,70.29
2023-03-05T06:31:32.450Z,70.28
2023-03-05T06:34:05.264Z,70.37
2023-03-05T06:36:40.601Z,70.19
2023-03-05T06:39:13.389Z,70.01
2023-03-05T06:41:47.744Z,70.15
2023-03-05T06:44:20.457Z,70.45
2023-03-05T06:46:53.162Z,70.68
2023-03-05T06:49:26.021Z,70.39
2023-03-05T06:51:58.766Z,70.17
2023-03-05T06:54:31.579Z,70.48
2023-03-05T06:57:06.072Z,70.29
2023-03-05T06:59:38.846Z,70.09
2023-03-05T07:02:13.626Z,70.19
2023-03-05T07:04:46.452Z,70.36
2023-03-05T07:07:19.383Z,70.55
2023-03-05T07:09:53.684Z,70.13
2023-03-05T07:12:28.184Z,70.28
2023-03-05T07:15:01.203Z,70.12
2023-03-05T07:17:33.952Z,70.27
2023-03-05T07:20:08.381Z,69.94
2023-03-05T07:22:41.705Z,69.93
2023-03-05T07:25:19.282Z,70.04
2023-03-05T07:27:53.481Z,69.96
2023-03-05T07:30:26.487Z,69.94
2023-03-05T07:32:59.320Z,69.92
2023-03-05T07:35:32.162Z,70.14
2023-03-05T07:38:05.059Z,69.86
2023-03-05T07:40:37.966Z,69.80
2023-03-05T07:43:13.897Z,70.08
2023-03-05T07:45:47.585Z,69.84
2023-03-05T07:48:21.863Z,70.08
2023-03-05T07:51:01.984Z,70.01
2023-03-05T07:53:34.840Z,69.69
2023-03-05T07:56:08.239Z,69.72
2023-03-05T07:58:42.367Z,70.01
2023-03-05T08:01:15.331Z,69.61
2023-03-05T08:03:48.399Z,69.57
2023-03-05T08:06:21.119Z,69.72
2023-03-05T08:08:53.919Z,69.98
2023-03-05T08:11:28.437Z,69.74
2023-03-05T08:14:02.672Z,69.98
2023-03-05T08:16:35.606Z,69.87
2023-03-05T08:19:08.729Z,69.91
2023-03-05T08:21:41.680Z,69.75
2023-03-05T08:24:15.127Z,69.49
2023-03-05T08:26:47.887Z,69.45
2023-03-05T08:29:22.023Z,69.81
2023-03-05T08:31:55.768Z,70.21
2023-03-05T08:34:28.864Z,70.05
2023-03-05T08:37:01.641Z,70.18
2023-03-05T08:39:34.359Z,69.87
2023-03-05T08:42:09.014Z,69.91
2023-03-05T08:44:43.240Z,70.01
2023-03-05T08:47:16.103Z,70.57
2023-03-05T08:49:48.839Z,70.51
2023-03-05T08:52:21.555Z,70.01
2023-03-05T08:54:54.401Z,69.64
2023-03-05T08:57:27.412Z,70.09
2023-03-05T09:00:01.361Z,69.30
2023-03-05T09:02:34.358Z,69.05
2023-03-05T09:05:07.421Z,69.98
2023-03-05T09:07:40.337Z,69.69
2023-03-05T09:10:14.681Z,69.93
2023-03-05T09:12:49.138Z,70.51
2023-03-05T09:15:23.301Z,70.12
2023-03-05T09:17:56.616Z,69.69
2023-03-05T09:20:29.687Z,68.98
2023-03-05T09:23:02.441Z,70.67
2023-03-05T09:25:35.249Z,70.61
2023-03-05T09:28:08.180Z,69.17
2023-03-05T09:30:42.711Z,69.34
2023-03-05T09:33:15.826Z,69.41
2023-03-05T09:35:49.006Z,69.40
2023-03-05T09:38:21.913Z,69.83
2023-03-05T09:41:02.306Z,70.82
2023-03-05T09:43:45.674Z,69.00
2023-03-05T09:46:31.338Z,69.88
2023-03-05T09:49:16.013Z,69.81
2023-03-05T09:51:56.014Z,71.80
2023-03-05T09:54:38.287Z,71.31
2023-03-05T09:57:18.424Z,69.01
2023-03-05T09:59:55.110Z,68.63
2023-03-05T10:02:35.679Z,69.87
2023-03-05T10:05:19.628Z,70.78
2023-03-05T10:07:56.356Z,68.58
2023-03-05T10:10:40.497Z,71.18
2023-03-05T10:13:17.685Z,69.82
2023-03-05T10:15:59.739Z,69.87
2023-03-05T10:18:38.184Z,70.90
2023-03-05T10:21:14.884Z,69.65
2023-03-05T10:24:10.515Z,69.81
2023-03-05T10:26:58.197Z,69.31
2023-03-05T10:29:54.253Z,71.76
2023-03-05T10:32:40.028Z,69.44
2023-03-05T10:35:33.155Z,70.54
2023-03-05T10:38:26.611Z,70.60
2023-03-05T10:41:05.754Z,69.39
2023-03-05T10:43:46.511Z,70.55
2023-03-05T10:46:22.799Z,66.77
2023-03-05T10:49:00.168Z,65.73
2023-03-05T10:51:38.953Z,68.79
2023-03-05T10:54:19.922Z,69.81
2023-03-05T10:57:03.371Z,71.47
2023-03-05T10:59:36.090Z,71.49
2023-03-05T11:02:10.020Z,70.04
2023-03-05T11:04:43.420Z,69.71
2023-03-05T11:07:36.883Z,69.18
2023-03-05T11:10:17.057Z,70.26
2023-03-05T11:12:49.969Z,69.70
2023-03-05T11:15:30.463Z,70.11
2023-03-05T11:18:24.254Z,68.67
2023-03-05T11:21:09.512Z,69.76
2023-03-05T11:23:44.570Z,71.22
2023-03-05T11:26:23.138Z,71.03
2023-03-05T11:29:01.327Z,71.39
2023-03-05T11:31:34.909Z,70.57
2023-03-05T11:34:23.363Z,68.96
2023-03-05T11:37:06.166Z,68.82
2023-03-05T11:39:41.328Z,70.01
2023-03-05T11:42:19.281Z,69.63
2023-03-05T11:44:55.987Z,70.21
2023-03-05T11:47:34.715Z,71.15
2023-03-05T11:50:20.193Z,71.00
2023-03-05T11:52:55.617Z,70.68
2023-03-05T11:55:35.716Z,69.06
2023-03-05T11:58:32.465Z,70.50
2023-03-05T12:01:13.883Z,70.76
2023-03-05T12:03:47.747Z,66.92
2023-03-05T12:06:30.366Z,69.01
2023-03-05T12:09:08.627Z,69.93
2023-03-05T12:11:46.235Z,70.27
2023-03-05T12:14:25.733Z,70.34
2023-03-05T12:17:06.402Z,71.38
2023-03-05T12:19:53.646Z,71.50
2023-03-05T12:22:33.508Z,70.62
2023-03-05T12:25:26.643Z,71.17
2023-03-05T12:28:01.401Z,70.13
2023-03-05T12:31:00.004Z,70.62
2023-03-05T12:33:36.506Z,69.58
2023-03-05T12:36:35.630Z,69.93
2023-03-05T12:39:47.659Z,69.13
2023-03-05T12:42:46.753Z,68.25
2023-03-05T12:45:39.843Z,70.69
2023-03-05T12:48:46.577Z,69.68
2023-03-05T12:51:36.200Z,69.60
2023-03-05T12:54:28.195Z,69.86
2023-03-05T12:57:02.553Z,71.62
2023-03-05T12:59:43.916Z,68.81
2023-03-05T13:02:32.694Z,72.50
2023-03-05T13:05:13.170Z,70.38
2023-03-05T13:07:46.038Z,71.99
2023-03-05T13:10:24.440Z,71.14
2023-03-05T13:12:59.002Z,71.23
2023-03-05T13:15:33.263Z,70.96
2023-03-05T13:18:19.860Z,72.40
2023-03-05T13:21:02.523Z,71.29
2023-03-05T13:23:36.292Z,72.04
2023-03-05T13:26:15.446Z,72.25
2023-03-05T13:29:06.173Z,72.17
2023-03-05T13:31:44.174Z,71.75
2023-03-05T13:34:22.105Z,71.23
2023-03-05T13:36:58.758Z,72.61
2023-03-05T13:39:35.729Z,71.49
2023-03-05T13:42:17.952Z,71.43
2023-03-05T13:44:57.714Z,70.46
2023-03-05T13:47:32.676Z,71.84
2023-03-05T13:50:22.890Z,70.78
2023-03-05T13:52:58.375Z,71.38
2023-03-05T13:55:32.110Z,71.86
2023-03-05T13:58:04.768Z,72.05
2023-03-05T14:00:38.974Z,72.86
2023-03-05T14:03:22.046Z,71.94
2023-03-05T14:05:56.276Z,72.46
2023-03-05T14:08:29.874Z,71.94
2023-03-05T14:11:14.537Z,71.81
2023-03-05T14:13:49.649Z,72.87
2023-03-05T14:16:28.150Z,72.33
2023-03-05T14:19:02.755Z,72.17
2023-03-05T14:21:52.162Z,72.08
2023-03-05T14:24:28.733Z,70.06
2023-03-05T14:27:05.768Z,71.94
2023-03-05T14:29:39.004Z,71.64
2023-03-05T14:32:24.330Z,71.93
2023-03-05T14:34:59.762Z,70.68
2023-03-05T14:37:36.904Z,71.90
2023-03-05T14:40:22.007Z,71.55
2023-03-05T14:42:56.977Z,71.72
2023-03-05T14:45:32.690Z,71.77
2023-03-05T14:48:07.752Z,71.91
2023-03-05T14:50:44.876Z,71.97
2023-03-05T14:53:22.900Z,71.95
2023-03-05T14:55:57.337Z,72.28
2023-03-05T14:58:35.447Z,71.85
2023-03-05T15:01:08.557Z,71.42
2023-03-05T15:03:42.087Z,71.58
2023-03-05T15:06:25.628Z,71.44
2023-03-05T15:09:00.892Z,71.47
2023-03-05T15:11:33.546Z,72.16
2023-03-05T15:14:06.460Z,71.61
2023-03-05T15:16:40.693Z,71.40
2023-03-05T15:19:13.907Z,71.76
2023-03-05T15:21:46.792Z,71.44
2023-03-05T15:24:20.855Z,71.21
2023-03-05T15:26:53.886Z,71.19
2023-03-05T15:29:26.860Z,70.96
2023-03-05T15:32:01.041Z,70.87
2023-03-05T15:34:34.848Z,70.92
2023-03-05T15:37:07.599Z,69.77
2023-03-05T15:39:44.052Z,70.52
2023-03-05T15:42:16.812Z,69.67
2023-03-05T15:44:49.725Z,70.45
2023-03-05T15:47:22.392Z,70.96
2023-03-05T15:49:55.289Z,71.07
2023-03-05T15:52:28.186Z,70.32
2023-03-05T15:55:02.723Z,70.53
2023-03-05T15:57:37.976Z,70.56
2023-03-05T16:00:12.390Z,70.34
2023-03-05T16:02:45.201Z,69.74
2023-03-05T16:05:18.729Z,70.06
2023-03-05T16:07:53.397Z,70.51
2023-03-05T16:10:29.703Z,69.98
2023-03-05T16:13:06.644Z,70.11
2023-03-05T16:15:42.345Z,70.60
2023-03-05T16:18:18.662Z,70.36
2023-03-05T16:20:52.333Z,70.48
2023-03-05T16:23:25.104Z,70.15
2023-03-05T16:25:59.844Z,70.18
2023-03-05T16:28:32.654Z,70.70
2023-03-05T16:31:06.020Z,70.26
2023-03-05T16:33:38.886Z,70.50
2023-03-05T16:36:20.876Z,70.22
2023-03-05T16:38:55.341Z,70.76
2023-03-05T16:41:29.842Z,70.33
2023-03-05T16:44:02.598Z,70.54
2023-03-05T16:46:35.751Z,70.48
2023-03-05T16:49:10.047Z,70.58
2023-03-05T16:51:46.803Z,70.23
2023-03-05T16:54:20.005Z,70.35
2023-03-05T16:56:54.575Z,70.37
2023-03-05T16:59:27.331Z,70.26
2023-03-05T17:02:00.209Z,70.47
2023-03-05T17:04:33.594Z,70.46
2023-03-05T17:07:06.970Z,70.05
2023-03-05T17:09:39.765Z,70.13
2023-03-05T17:12:13.841Z,69.54
2023-03-05T17:14:46.588Z,69.77
2023-03-05T17:17:19.394Z,69.88
2023-03-05T17:19:52.021Z,70.30
2023-03-05T17:22:24.757Z,70.06
2023-03-05T17:24:57.913Z,69.87
2023-03-05T17:27:32.070Z,71.05
2023-03-05T17:30:05.431Z,69.45
2023-03-05T17:32:38.255Z,69.34
2023-03-05T17:35:18.157Z,69.66
2023-03-05T17:37:51.690Z,70.38
2023-03-05T17:40:25.454Z,70.04
2023-03-05T17:42:59.667Z,69.25
2023-03-05T17:45:32.396Z,70.95
2023-03-05T17:48:06.686Z,70.99
2023-03-05T17:50:40.122Z,70.57
2023-03-05T17:53:13.018Z,68.20
2023-03-05T17:55:45.629Z,69.83
2023-03-05T17:58:20.191Z,68.31
2023-03-05T18:00:53.667Z,68.06
2023-03-05T18:03:27.124Z,68.31
2023-03-05T18:06:00.229Z,68.52
2023-03-05T18:08:33.460Z,68.18
2023-03-05T18:11:06.359Z,69.66
2023-03-05T18:13:40.574Z,68.62
2023-03-05T18:16:16.764Z,67.99
2023-03-05T18:18:49.538Z,68.87
2023-03-05T18:21:24.399Z,68.97
2023-03-05T18:23:57.215Z,69.05
2023-03-05T18:26:29.837Z,69.32
2023-03-05T18:29:04.318Z,69.01
2023-03-05T18:31:37.086Z,69.59
2023-03-05T18:34:09.741Z,69.96
2023-03-05T18:36:42.473Z,70.53
2023-03-05T18:39:16.289Z,69.55
2023-03-05T18:41:49.530Z,70.38
2023-03-05T18:44:23.891Z,70.71
2023-03-05T18:46:57.930Z,69.85
2023-03-05T18:49:31.112Z,69.58
2023-03-05T18:52:04.698Z,69.02
2023-03-05T18:54:37.602Z,69.20
2023-03-05T18:57:10.121Z,69.00
2023-03-05T18:59:44.371Z,68.90
2023-03-05T19:02:18.062Z,70.51
2023-03-05T19:04:50.803Z,68.96
2023-03-05T19:07:29.682Z,69.14
2023-03-05T19:10:07.352Z,69.39
2023-03-05T19:12:49.016Z,68.93
2023-03-05T19:15:23.544Z,68.79
2023-03-05T19:17:56.308Z,69.14
2023-03-05T19:20:29.387Z,69.69
2023-03-05T19:23:02.036Z,68.64
2023-03-05T19:25:36.507Z,68.98
2023-03-05T19:28:09.535Z,68.93
2023-03-05T19:30:44.483Z,69.12
2023-03-05T19:33:17.193Z,69.31
2023-03-05T19:35:50.885Z,68.88
2023-03-05T19:38:24.917Z,68.96
2023-03-05T19:40:57.739Z,69.45
2023-03-05T19:43:30.544Z,69.06
2023-03-05T19:46:06.762Z,68.75
2023-03-05T19:48:41.252Z,68.74
2023-03-05T19:51:16.279Z,68.70
2023-03-05T19:53:49.199Z,69.42
2023-03-05T19:56:22.632Z,68.91
2023-03-05T19:58:55.377Z,69.29
2023-03-05T20:01:29.594Z,69.05
2023-03-05T20:04:04.498Z,69.76
2023-03-05T20:06:37.182Z,69.62
2023-03-05T20:09:10.610Z,70.25
2023-03-05T20:11:43.571Z,70.39
2023-03-05T20:14:16.395Z,70.78
2023-03-05T20:16:50.442Z,70.18
2023-03-05T20:19:23.248Z,70.24
2023-03-05T20:21:55.966Z,70.23
2023-03-05T20:24:28.766Z,70.84
2023-03-05T20:27:01.604Z,70.48
2023-03-05T20:29:34.286Z,70.69
2023-03-05T20:32:08.558Z,70.34
2023-03-05T20:34:41.377Z,70.18
2023-03-05T20:37:14.147Z,70.05
2023-03-05T20:39:46.857Z,70.66
2023-03-05T20:42:19.716Z,71.02
2023-03-05T20:44:52.371Z,70.93
2023-03-05T20:47:37.364Z,70.32
2023-03-05T20:50:11.394Z,70.20
2023-03-05T20:52:44.734Z,70.56
2023-03-05T20:55:17.421Z,70.58
2023-03-05T20:57:50.199Z,70.47
2023-03-05T21:00:23.131Z,70.11
2023-03-05T21:02:57.372Z,70.58
2023-03-05T21:05:31.356Z,70.50
2023-03-05T21:08:05.475Z,70.37
2023-03-05T21:10:39.579Z,69.92
2023-03-05T21:13:12.444Z,70.87
2023-03-05T21:15:45.083Z,70.13
2023-03-05T21:18:19.433Z,70.25
2023-03-05T21:20:52.124Z,70.95
2023-03-05T21:23:24.910Z,70.10
2023-03-05T21:25:57.805Z,70.67
2023-03-05T21:28:31.086Z,70.10
2023-03-05T21:31:07.911Z,70.15
2023-03-05T21:33:42.225Z,70.25
2023-03-05T21:36:18.853Z,70.77
2023-03-05T21:38:51.787Z,70.76
2023-03-05T21:41:26.272Z,70.53
2023-03-05T21:44:04.057Z,70.71
2023-03-05T21:46:37.470Z,70.40
2023-03-05T21:49:11.618Z,70.64
2023-03-05T21:51:56.941Z,70.92
2023-03-05T21:54:29.837Z,70.42
2023-03-05T21:57:02.564Z,70.24
2023-03-05T21:59:36.199Z,70.21
2023-03-05T22:02:12.090Z,70.39
2023-03-05T22:04:46.863Z,70.37
2023-03-05T22:07:20.303Z,70.39
2023-03-05T22:09:55.677Z,70.54
2023-03-05T22:12:42.996Z,70.43
2023-03-05T22:15:15.775Z,71.04
2023-03-05T22:17:48.623Z,70.27
2023-03-05T22:20:22.878Z,70.71
2023-03-05T22:22:55.575Z,70.29
2023-03-05T22:25:28.343Z,70.91
2023-03-05T22:28:01.095Z,70.89
2023-03-05T22:30:34.381Z,70.45
2023-03-05T22:33:07.028Z,70.41
2023-03-05T22:35:42.280Z,70.51
2023-03-05T22:38:15.377Z,70.29
2023-03-05T22:40:48.843Z,71.19
2023-03-05T22:43:21.759Z,70.53
2023-03-05T22:45:54.644Z,70.49
2023-03-05T22:48:27.259Z,70.80
2023-03-05T22:51:01.370Z,70.66
2023-03-05T22:53:34.199Z,70.58
2023-03-05T22:56:08.270Z,70.69
2023-03-05T22:58:42.010Z,71.11
2023-03-05T23:01:15.989Z,70.40
2023-03-05T23:03:53.291Z,70.41
2023-03-05T23:06:30.611Z,70.53
2023-03-05T23:09:03.251Z,70.59
2023-03-05T23:11:35.962Z,70.64
2023-03-05T23:14:08.651Z,70.47
2023-03-05T23:16:41.369Z,70.54
2023-03-05T23:19:14.095Z,70.77
2023-03-05T23:21:48.166Z,70.64
2023-03-05T23:24:20.753Z,70.66
2023-03-05T23:26:54.006Z,70.78
2023-03-05T23:29:27.364Z,70.51
2023-03-05T23:32:00.129Z,70.44
2023-03-05T23:34:32.805Z,70.70
2023-03-05T23:37:06.855Z,70.59
2023-03-05T23:39:39.495Z,70.70
2023-03-05T23:42:12.413Z,70.92
2023-03-05T23:44:45.237Z,70.79
2023-03-05T23:47:17.897Z,70.57
2023-03-05T23:49:50.563Z,70.73
2023-03-05T23:52:24.565Z,70.88
2023-03-05T23:54:57.296Z,70.88
2023-03-05T23:57:30.476Z,70.58
